Elisabeth — PG4185 — position and weather

sailwx.info

Track history (hours):
 
Tides and Currents Weather Stations Pressure Air Temp Water Temp Dewpoint Dewpoint Depression Visibility Wind Speed Wind Dir Waves Ship Positions

Elisabeth

Last reported at 2017-Dec-08 17:17 UTC. Time now 2017-Dec-18 14:47 UTC.
Position N 27°55' W 015°21'.
Warning: this ship's position is 9 days out of date.

Length 11 m.

Type: Sailing vessel. MMSI: 244615986.

Date/timePositionNaut miles runAvg speedWind from/ knotsBaromVisibWave heightAir tempDewpointWater temp
2017-Dec-08 17:17N 27°55' W 015°21'2 4.7
2017-Dec-08 16:58N 27°56' W 015°20'2 3.4
2017-Dec-08 16:27N 27°58' W 015°20'2 3.5
2017-Dec-08 15:57N 27°60' W 015°19'2 4.3
2017-Dec-08 15:26N 28°02' W 015°19'2 4.6
2017-Dec-08 14:55N 28°04' W 015°20'2 5.1
2017-Dec-08 14:30N 28°06' W 015°20'3 5.2
2017-Dec-08 14:00N 28°09' W 015°20'2 4.9
2017-Dec-08 13:30N 28°08' W 015°22'2 4.3
2017-Dec-08 13:00N 28°07' W 015°25'1 1.5
2017-Dec-08 12:30N 28°08' W 015°26'0 0.0
2017-Dec-08 12:00N 28°08' W 015°26'0 0.5
2017-Dec-08 11:22N 28°07' W 015°25'  
2017-Nov-30 15:07N 28°07' W 015°25'0 0.0
2017-Nov-30 14:43N 28°07' W 015°25'0 0.0
2017-Nov-30 14:25N 28°07' W 015°25'0 0.0
2017-Nov-30 13:55N 28°07' W 015°25'0 0.0
2017-Nov-30 13:28N 28°07' W 015°25'0 0.0
2017-Nov-30 12:57N 28°07' W 015°25'0 0.9
2017-Nov-30 12:29N 28°08' W 015°25'0 0.0
2017-Nov-30 11:59N 28°08' W 015°25'0 0.0
2017-Nov-30 11:29N 28°08' W 015°25'0 0.0
2017-Nov-30 10:59N 28°08' W 015°25'0 0.0
2017-Nov-30 10:29N 28°08' W 015°25'0 0.3
2017-Nov-30 10:00N 28°08' W 015°25'1 2.4
2017-Nov-30 09:28N 28°08' W 015°24'3 5.5
2017-Nov-30 08:57N 28°11' W 015°24'3 5.4
2017-Nov-30 08:27N 28°13' W 015°24'3 5.5
2017-Nov-30 07:56N 28°16' W 015°25'3 5.5
2017-Nov-30 07:25N 28°19' W 015°26'2 5.5
2017-Nov-30 07:00N 28°21' W 015°26'3 5.6
2017-Nov-30 06:30N 28°24' W 015°27'3 5.8
2017-Nov-30 06:00N 28°27' W 015°28'3 5.9
2017-Nov-30 05:30N 28°29' W 015°28'3 5.9
2017-Nov-30 05:00N 28°32' W 015°29'3 5.8
2017-Nov-30 04:29N 28°35' W 015°30'  
Track history (hours):
 
Tides and Currents Weather Stations Pressure Air Temp Water Temp Dewpoint Dewpoint Depression Visibility Wind Speed Wind Dir Waves Ship Positions

Elisabeth

Last reported at 2017-Dec-08 17:17 UTC. Time now 2017-Dec-18 14:47 UTC.
Position N 27°55' W 015°21'.
Warning: this ship's position is 9 days out of date.

Length 11 m.

Type: Sailing vessel. MMSI: 244615986.

Date/timePositionNaut miles runAvg speedWind from/ knotsBaromVisibWave heightAir tempDewpointWater temp
2017-Dec-08 17:17N 27°55' W 015°21'2 4.7
2017-Dec-08 16:58N 27°56' W 015°20'2 3.4
2017-Dec-08 16:27N 27°58' W 015°20'2 3.5
2017-Dec-08 15:57N 27°60' W 015°19'2 4.3
2017-Dec-08 15:26N 28°02' W 015°19'2 4.6
2017-Dec-08 14:55N 28°04' W 015°20'2 5.1
2017-Dec-08 14:30N 28°06' W 015°20'3 5.2
2017-Dec-08 14:00N 28°09' W 015°20'2 4.9
2017-Dec-08 13:30N 28°08' W 015°22'2 4.3
2017-Dec-08 13:00N 28°07' W 015°25'1 1.5
2017-Dec-08 12:30N 28°08' W 015°26'0 0.0
2017-Dec-08 12:00N 28°08' W 015°26'0 0.5
2017-Dec-08 11:22N 28°07' W 015°25'  
2017-Nov-30 15:07N 28°07' W 015°25'0 0.0
2017-Nov-30 14:43N 28°07' W 015°25'0 0.0
2017-Nov-30 14:25N 28°07' W 015°25'0 0.0
2017-Nov-30 13:55N 28°07' W 015°25'0 0.0
2017-Nov-30 13:28N 28°07' W 015°25'0 0.0
2017-Nov-30 12:57N 28°07' W 015°25'0 0.9
2017-Nov-30 12:29N 28°08' W 015°25'0 0.0
2017-Nov-30 11:59N 28°08' W 015°25'0 0.0
2017-Nov-30 11:29N 28°08' W 015°25'0 0.0
2017-Nov-30 10:59N 28°08' W 015°25'0 0.0
2017-Nov-30 10:29N 28°08' W 015°25'0 0.3
2017-Nov-30 10:00N 28°08' W 015°25'1 2.4
2017-Nov-30 09:28N 28°08' W 015°24'3 5.5
2017-Nov-30 08:57N 28°11' W 015°24'3 5.4
2017-Nov-30 08:27N 28°13' W 015°24'3 5.5
2017-Nov-30 07:56N 28°16' W 015°25'3 5.5
2017-Nov-30 07:25N 28°19' W 015°26'2 5.5
2017-Nov-30 07:00N 28°21' W 015°26'3 5.6
2017-Nov-30 06:30N 28°24' W 015°27'3 5.8
2017-Nov-30 06:00N 28°27' W 015°28'3 5.9
2017-Nov-30 05:30N 28°29' W 015°28'3 5.9
2017-Nov-30 05:00N 28°32' W 015°29'3 5.8
2017-Nov-30 04:29N 28°35' W 015°30'  

Dump ship's entire track history